sensor_id;sensor_type;location;lat;lon;timestamp;P1;durP1;ratioP1;P2;durP2;ratioP2
9228;SDS011;4649;42.644;23.284;2022-12-29T07:20:10;20.33;;;18.23;;
9228;SDS011;4649;42.644;23.284;2022-12-29T07:22:39;19.80;;;17.93;;
9228;SDS011;4649;42.644;23.284;2022-12-29T07:25:07;19.20;;;17.20;;
9228;SDS011;4649;42.644;23.284;2022-12-29T07:27:36;24.60;;;16.60;;
9228;SDS011;4649;42.644;23.284;2022-12-29T07:31:01;18.47;;;15.37;;
9228;SDS011;4649;42.644;23.284;2022-12-29T07:33:31;17.90;;;16.20;;
9228;SDS011;4649;42.644;23.284;2022-12-29T07:35:59;18.30;;;16.73;;
9228;SDS011;4649;42.644;23.284;2022-12-29T07:38:26;19.50;;;17.50;;
9228;SDS011;4649;42.644;23.284;2022-12-29T07:40:56;21.53;;;18.27;;
9228;SDS011;4649;42.644;23.284;2022-12-29T07:43:23;20.73;;;18.73;;
9228;SDS011;4649;42.644;23.284;2022-12-29T07:45:50;18.10;;;16.03;;
9228;SDS011;4649;42.644;23.284;2022-12-29T07:48:17;23.10;;;16.67;;
9228;SDS011;4649;42.644;23.284;2022-12-29T07:50:49;18.23;;;16.67;;
9228;SDS011;4649;42.644;23.284;2022-12-29T07:53:19;17.97;;;16.27;;
9228;SDS011;4649;42.644;23.284;2022-12-29T07:55:47;20.37;;;17.13;;
9228;SDS011;4649;42.644;23.284;2022-12-29T07:58:15;20.00;;;17.33;;
9228;SDS011;4649;42.644;23.284;2022-12-29T08:00:42;24.50;;;20.17;;
9228;SDS011;4649;42.644;23.284;2022-12-29T08:03:11;19.57;;;17.97;;
9228;SDS011;4649;42.644;23.284;2022-12-29T08:05:38;23.60;;;17.90;;
9228;SDS011;4649;42.644;23.284;2022-12-29T08:08:07;18.70;;;16.90;;
9228;SDS011;4649;42.644;23.284;2022-12-29T08:10:34;19.93;;;17.77;;
9228;SDS011;4649;42.644;23.284;2022-12-29T08:13:00;23.57;;;17.87;;
9228;SDS011;4649;42.644;23.284;2022-12-29T08:15:28;18.27;;;16.50;;
9228;SDS011;4649;42.644;23.284;2022-12-29T08:17:54;19.00;;;17.27;;
9228;SDS011;4649;42.644;23.284;2022-12-29T08:20:21;20.73;;;18.03;;
9228;SDS011;4649;42.644;23.284;2022-12-29T08:22:48;20.27;;;17.80;;
9228;SDS011;4649;42.644;23.284;2022-12-29T08:25:18;19.87;;;17.73;;
9228;SDS011;4649;42.644;23.284;2022-12-29T08:27:45;19.60;;;17.60;;
9228;SDS011;4649;42.644;23.284;2022-12-29T08:30:12;19.43;;;17.37;;
9228;SDS011;4649;42.644;23.284;2022-12-29T08:32:40;18.60;;;16.90;;
9228;SDS011;4649;42.644;23.284;2022-12-29T08:35:07;19.87;;;18.00;;
9228;SDS011;4649;42.644;23.284;2022-12-29T08:37:34;20.00;;;18.20;;
9228;SDS011;4649;42.644;23.284;2022-12-29T08:40:01;20.83;;;18.50;;
9228;SDS011;4649;42.644;23.284;2022-12-29T08:42:30;19.83;;;17.93;;
9228;SDS011;4649;42.644;23.284;2022-12-29T08:44:57;19.70;;;17.53;;
9228;SDS011;4649;42.644;23.284;2022-12-29T08:47:23;20.03;;;16.73;;
9228;SDS011;4649;42.644;23.284;2022-12-29T08:49:50;19.03;;;17.23;;
9228;SDS011;4649;42.644;23.284;2022-12-29T08:52:17;22.37;;;17.07;;
9228;SDS011;4649;42.644;23.284;2022-12-29T08:54:44;25.43;;;17.40;;
9228;SDS011;4649;42.644;23.284;2022-12-29T08:57:11;20.03;;;17.97;;
9228;SDS011;4649;42.644;23.284;2022-12-29T08:59:39;18.57;;;16.57;;
9228;SDS011;4649;42.644;23.284;2022-12-29T09:02:08;18.10;;;16.50;;
9228;SDS011;4649;42.644;23.284;2022-12-29T09:04:36;20.13;;;16.90;;
9228;SDS011;4649;42.644;23.284;2022-12-29T09:07:03;18.23;;;16.40;;
9228;SDS011;4649;42.644;23.284;2022-12-29T09:09:30;17.40;;;15.67;;
9228;SDS011;4649;42.644;23.284;2022-12-29T09:11:57;17.10;;;15.60;;
9228;SDS011;4649;42.644;23.284;2022-12-29T09:14:24;20.73;;;17.90;;
9228;SDS011;4649;42.644;23.284;2022-12-29T09:16:52;19.50;;;17.33;;
9228;SDS011;4649;42.644;23.284;2022-12-29T09:19:37;18.27;;;16.60;;
9228;SDS011;4649;42.644;23.284;2022-12-29T09:22:04;17.97;;;15.87;;
9228;SDS011;4649;42.644;23.284;2022-12-29T09:24:31;16.93;;;15.53;;
9228;SDS011;4649;42.644;23.284;2022-12-29T09:26:58;27.97;;;17.30;;
9228;SDS011;4649;42.644;23.284;2022-12-29T09:29:25;19.80;;;17.97;;
9228;SDS011;4649;42.644;23.284;2022-12-29T09:31:53;19.03;;;17.13;;
9228;SDS011;4649;42.644;23.284;2022-12-29T09:34:19;19.63;;;17.77;;
9228;SDS011;4649;42.644;23.284;2022-12-29T09:36:46;19.63;;;17.67;;
9228;SDS011;4649;42.644;23.284;2022-12-29T09:39:13;18.90;;;17.33;;
9228;SDS011;4649;42.644;23.284;2022-12-29T09:41:41;19.87;;;17.80;;
9228;SDS011;4649;42.644;23.284;2022-12-29T09:44:16;18.67;;;16.70;;
9228;SDS011;4649;42.644;23.284;2022-12-29T09:46:49;19.23;;;17.30;;
9228;SDS011;4649;42.644;23.284;2022-12-29T09:49:23;21.67;;;17.53;;
9228;SDS011;4649;42.644;23.284;2022-12-29T09:51:56;18.47;;;16.90;;
9228;SDS011;4649;42.644;23.284;2022-12-29T09:54:39;19.23;;;17.53;;
9228;SDS011;4649;42.644;23.284;2022-12-29T09:57:16;22.47;;;20.13;;
9228;SDS011;4649;42.644;23.284;2022-12-29T09:59:46;19.23;;;17.27;;
9228;SDS011;4649;42.644;23.284;2022-12-29T10:02:21;26.97;;;16.93;;
9228;SDS011;4649;42.644;23.284;2022-12-29T10:04:59;23.90;;;18.17;;
9228;SDS011;4649;42.644;23.284;2022-12-29T10:07:30;18.93;;;17.23;;
9228;SDS011;4649;42.644;23.284;2022-12-29T10:10:11;20.60;;;18.67;;
9228;SDS011;4649;42.644;23.284;2022-12-29T10:12:55;21.03;;;18.80;;
9228;SDS011;4649;42.644;23.284;2022-12-29T10:15:38;21.07;;;18.87;;
9228;SDS011;4649;42.644;23.284;2022-12-29T10:18:27;20.03;;;17.90;;
9228;SDS011;4649;42.644;23.284;2022-12-29T10:21:08;19.90;;;17.97;;
9228;SDS011;4649;42.644;23.284;2022-12-29T10:23:44;20.00;;;17.93;;
9228;SDS011;4649;42.644;23.284;2022-12-29T10:26:15;20.63;;;17.43;;
9228;SDS011;4649;42.644;23.284;2022-12-29T10:28:47;17.70;;;15.90;;
9228;SDS011;4649;42.644;23.284;2022-12-29T10:31:19;22.83;;;18.60;;
9228;SDS011;4649;42.644;23.284;2022-12-29T10:33:49;22.10;;;17.57;;
9228;SDS011;4649;42.644;23.284;2022-12-29T10:36:23;21.27;;;19.00;;
9228;SDS011;4649;42.644;23.284;2022-12-29T10:38:58;19.67;;;17.57;;
9228;SDS011;4649;42.644;23.284;2022-12-29T10:41:32;21.47;;;18.60;;
9228;SDS011;4649;42.644;23.284;2022-12-29T10:44:04;21.90;;;18.77;;
9228;SDS011;4649;42.644;23.284;2022-12-29T10:46:33;24.70;;;18.80;;
9228;SDS011;4649;42.644;23.284;2022-12-29T10:49:10;21.23;;;18.83;;
9228;SDS011;4649;42.644;23.284;2022-12-29T10:51:47;21.97;;;19.70;;
9228;SDS011;4649;42.644;23.284;2022-12-29T10:54:18;24.77;;;21.83;;
9228;SDS011;4649;42.644;23.284;2022-12-29T10:56:50;24.23;;;21.73;;
9228;SDS011;4649;42.644;23.284;2022-12-29T10:59:21;23.97;;;21.57;;
9228;SDS011;4649;42.644;23.284;2022-12-29T11:01:52;23.40;;;20.77;;
9228;SDS011;4649;42.644;23.284;2022-12-29T11:04:35;26.83;;;22.23;;
9228;SDS011;4649;42.644;23.284;2022-12-29T11:07:14;29.00;;;22.67;;
9228;SDS011;4649;42.644;23.284;2022-12-29T11:09:43;31.07;;;22.33;;
9228;SDS011;4649;42.644;23.284;2022-12-29T11:12:21;24.73;;;22.20;;
9228;SDS011;4649;42.644;23.284;2022-12-29T11:15:11;23.83;;;21.43;;
9228;SDS011;4649;42.644;23.284;2022-12-29T11:17:43;23.37;;;21.20;;
9228;SDS011;4649;42.644;23.284;2022-12-29T11:23:04;25.47;;;22.73;;
9228;SDS011;4649;42.644;23.284;2022-12-29T11:25:46;24.80;;;22.33;;
9228;SDS011;4649;42.644;23.284;2022-12-29T11:28:33;25.40;;;22.10;;
9228;SDS011;4649;42.644;23.284;2022-12-29T11:31:04;40.00;;;23.67;;
9228;SDS011;4649;42.644;23.284;2022-12-29T11:33:32;25.33;;;22.00;;
9228;SDS011;4649;42.644;23.284;2022-12-29T11:36:01;25.83;;;21.23;;
9228;SDS011;4649;42.644;23.284;2022-12-29T11:38:33;26.03;;;22.37;;
9228;SDS011;4649;42.644;23.284;2022-12-29T11:41:03;24.30;;;21.77;;
9228;SDS011;4649;42.644;23.284;2022-12-29T11:43:32;24.87;;;22.27;;
9228;SDS011;4649;42.644;23.284;2022-12-29T11:46:04;25.40;;;21.93;;
9228;SDS011;4649;42.644;23.284;2022-12-29T11:48:33;31.27;;;22.40;;
9228;SDS011;4649;42.644;23.284;2022-12-29T11:51:05;24.47;;;21.90;;
9228;SDS011;4649;42.644;23.284;2022-12-29T11:53:36;26.10;;;21.30;;
9228;SDS011;4649;42.644;23.284;2022-12-29T11:56:20;25.37;;;22.53;;
9228;SDS011;4649;42.644;23.284;2022-12-29T11:58:48;24.93;;;22.57;;
9228;SDS011;4649;42.644;23.284;2022-12-29T12:01:19;28.37;;;22.80;;
9228;SDS011;4649;42.644;23.284;2022-12-29T12:03:52;32.40;;;22.37;;
9228;SDS011;4649;42.644;23.284;2022-12-29T12:06:26;30.40;;;23.80;;
9228;SDS011;4649;42.644;23.284;2022-12-29T12:08:57;28.10;;;23.20;;
9228;SDS011;4649;42.644;23.284;2022-12-29T12:11:31;30.67;;;22.90;;
9228;SDS011;4649;42.644;23.284;2022-12-29T12:14:04;28.63;;;23.63;;
9228;SDS011;4649;42.644;23.284;2022-12-29T12:16:40;35.90;;;24.57;;
9228;SDS011;4649;42.644;23.284;2022-12-29T12:19:13;30.57;;;24.17;;
9228;SDS011;4649;42.644;23.284;2022-12-29T12:21:48;26.97;;;24.03;;
9228;SDS011;4649;42.644;23.284;2022-12-29T12:24:31;25.40;;;22.70;;
9228;SDS011;4649;42.644;23.284;2022-12-29T12:27:08;38.17;;;23.23;;
9228;SDS011;4649;42.644;23.284;2022-12-29T12:29:41;27.07;;;22.60;;
9228;SDS011;4649;42.644;23.284;2022-12-29T12:32:14;32.27;;;23.60;;
9228;SDS011;4649;42.644;23.284;2022-12-29T12:34:45;28.17;;;22.97;;
9228;SDS011;4649;42.644;23.284;2022-12-29T12:37:30;26.80;;;23.20;;
9228;SDS011;4649;42.644;23.284;2022-12-29T12:43:05;38.83;;;23.03;;
9228;SDS011;4649;42.644;23.284;2022-12-29T12:45:52;39.17;;;23.17;;
9228;SDS011;4649;42.644;23.284;2022-12-29T15:23:15;20.33;;;17.13;;
9228;SDS011;4649;42.644;23.284;2022-12-29T21:04:42;27.87;;;19.37;;
9228;SDS011;4649;42.644;23.284;2022-12-29T21:18:48;18.60;;;14.00;;
9228;SDS011;4649;42.644;23.284;2022-12-29T21:29:46;14.20;;;12.90;;
